createdAt,value
2018-06-03T00:02:20.138Z,86.10
2018-06-03T00:04:47.664Z,86.30
2018-06-03T00:07:15.193Z,86.40
2018-06-03T00:09:42.753Z,86.70
2018-06-03T00:12:11.019Z,86.30
2018-06-03T00:14:38.521Z,86.30
2018-06-03T00:17:06.033Z,86.30
2018-06-03T00:19:33.570Z,86.30
2018-06-03T00:22:01.866Z,86.10
2018-06-03T00:24:30.149Z,86.10
2018-06-03T00:26:58.444Z,86.20
2018-06-03T00:29:25.974Z,86.20
2018-06-03T00:31:53.492Z,86.20
2018-06-03T00:34:21.006Z,86.40
2018-06-03T00:36:49.284Z,86.60
2018-06-03T00:39:16.812Z,86.60
2018-06-03T00:41:44.366Z,86.70
2018-06-03T00:44:11.912Z,86.90
2018-06-03T00:46:39.450Z,87.20
2018-06-03T00:49:07.729Z,88.40
2018-06-03T00:52:24.321Z,88.40
2018-06-03T00:57:20.968Z,89.20
2018-06-03T00:59:49.423Z,89.10
2018-06-03T01:02:18.082Z,89.20
2018-06-03T01:04:46.575Z,89.00
2018-06-03T01:07:15.113Z,88.80
2018-06-03T01:09:43.615Z,88.90
2018-06-03T01:12:12.641Z,88.90
2018-06-03T01:14:41.111Z,89.00
2018-06-03T01:17:09.566Z,88.90
2018-06-03T01:19:38.089Z,88.90
2018-06-03T01:22:06.624Z,88.80
2018-06-03T01:24:35.124Z,88.70
2018-06-03T01:29:31.714Z,88.90
2018-06-03T01:32:00.134Z,88.30
2018-06-03T01:34:28.560Z,88.20
2018-06-03T01:36:57.044Z,88.20
2018-06-03T01:39:25.567Z,88.60
2018-06-03T01:41:54.022Z,88.00
2018-06-03T01:46:50.710Z,88.00
2018-06-03T01:49:19.157Z,88.00
2018-06-03T01:54:15.826Z,87.60
2018-06-03T01:56:44.298Z,87.80
2018-06-03T02:01:40.880Z,87.90
2018-06-03T02:04:09.393Z,87.80
2018-06-03T02:06:37.945Z,87.90
2018-06-03T02:09:07.041Z,87.90
2018-06-03T02:11:35.527Z,87.80
2018-06-03T02:14:04.042Z,88.00
2018-06-03T02:16:33.714Z,88.80
2018-06-03T02:19:02.227Z,88.40
2018-06-03T02:21:30.739Z,89.00
2018-06-03T02:23:59.186Z,88.50
2018-06-03T02:28:55.893Z,88.90
2018-06-03T02:31:24.444Z,89.00
2018-06-03T02:33:52.962Z,89.00
2018-06-03T02:36:21.390Z,89.50
2018-06-03T02:38:49.859Z,88.90
2018-06-03T02:41:18.383Z,89.00
2018-06-03T02:43:46.898Z,89.10
2018-06-03T02:46:15.328Z,88.70
2018-06-03T02:48:43.772Z,89.10
2018-06-03T02:51:12.270Z,89.20
2018-06-03T02:53:40.754Z,89.20
2018-06-03T02:56:09.436Z,89.30
2018-06-03T02:58:37.882Z,89.20
2018-06-03T03:01:06.436Z,89.30
2018-06-03T03:03:34.891Z,89.40
2018-06-03T03:06:03.485Z,89.20
2018-06-03T03:08:31.944Z,89.20
2018-06-03T03:11:00.388Z,89.20
2018-06-03T03:13:28.841Z,89.20
2018-06-03T03:15:57.379Z,89.10
2018-06-03T03:18:25.890Z,89.20
2018-06-03T03:20:54.343Z,89.10
2018-06-03T03:23:23.390Z,89.10
2018-06-03T03:25:51.979Z,89.10
2018-06-03T03:28:20.469Z,89.20
2018-06-03T03:30:48.934Z,89.30
2018-06-03T03:33:17.401Z,89.20
2018-06-03T03:38:14.003Z,89.20
2018-06-03T03:40:42.482Z,89.10
2018-06-03T03:43:11.031Z,89.00
2018-06-03T03:45:39.472Z,89.10
2018-06-03T03:48:08.024Z,89.00
2018-06-03T03:55:32.800Z,88.60
2018-06-03T03:58:01.256Z,88.50
2018-06-03T04:00:29.721Z,88.50
2018-06-03T04:02:58.239Z,88.20
2018-06-03T04:05:26.805Z,88.50
2018-06-03T04:07:55.279Z,87.90
2018-06-03T04:10:23.855Z,87.80
2018-06-03T04:12:52.397Z,87.50
2018-06-03T04:15:20.843Z,87.50
2018-06-03T04:17:49.359Z,87.50
2018-06-03T04:20:17.843Z,87.70
2018-06-03T04:22:46.328Z,87.70
2018-06-03T04:25:14.781Z,87.40
2018-06-03T04:27:43.401Z,87.20
2018-06-03T04:30:11.961Z,87.00
2018-06-03T04:35:08.550Z,86.60
2018-06-03T04:37:37.012Z,86.40
2018-06-03T04:40:05.518Z,86.00
2018-06-03T04:42:34.008Z,85.90
2018-06-03T04:45:02.486Z,85.70
2018-06-03T04:47:31.058Z,85.50
2018-06-03T04:49:59.569Z,85.40
2018-06-03T04:52:28.056Z,85.30
2018-06-03T04:54:56.595Z,84.50
2018-06-03T04:57:25.066Z,84.70
2018-06-03T04:59:53.518Z,84.40
2018-06-03T05:02:21.962Z,84.00
2018-06-03T05:04:50.453Z,84.10
2018-06-03T05:07:18.967Z,84.50
2018-06-03T05:09:47.455Z,84.60
2018-06-03T05:12:15.952Z,84.40
2018-06-03T05:14:44.448Z,83.70
2018-06-03T05:17:12.901Z,83.50
2018-06-03T05:19:41.406Z,84.00
2018-06-03T05:22:09.879Z,83.80
2018-06-03T05:24:38.366Z,83.80
2018-06-03T05:29:35.093Z,83.40
2018-06-03T05:32:03.579Z,83.00
2018-06-03T05:37:00.208Z,83.20
2018-06-03T05:39:28.660Z,82.50
2018-06-03T05:41:57.959Z,82.00
2018-06-03T05:44:26.419Z,82.00
2018-06-03T05:46:55.015Z,82.20
2018-06-03T05:49:23.614Z,82.30
2018-06-03T05:51:52.060Z,82.60
2018-06-03T05:54:20.625Z,81.90
2018-06-03T05:56:49.381Z,82.10
2018-06-03T05:59:17.849Z,81.70
2018-06-03T06:04:14.650Z,81.80
2018-06-03T06:06:43.144Z,82.00
2018-06-03T06:09:11.891Z,81.90
2018-06-03T06:11:40.356Z,81.20
2018-06-03T06:14:08.869Z,80.60
2018-06-03T06:16:37.330Z,80.20
2018-06-03T06:19:05.845Z,79.50
2018-06-03T06:21:34.351Z,79.30
2018-06-03T06:24:02.795Z,79.20
2018-06-03T06:26:31.307Z,78.70
2018-06-03T06:28:59.785Z,78.70
2018-06-03T06:31:28.314Z,78.40
2018-06-03T06:33:56.724Z,78.50
2018-06-03T06:36:25.243Z,78.00
2018-06-03T06:38:53.757Z,78.40
2018-06-03T06:41:22.232Z,78.50
2018-06-03T06:43:50.932Z,78.10
2018-06-03T06:46:19.431Z,77.00
2018-06-03T06:48:47.929Z,77.00
2018-06-03T06:51:16.442Z,77.60
2018-06-03T06:53:44.940Z,76.90
2018-06-03T06:58:41.724Z,77.60
2018-06-03T07:03:38.584Z,77.50
2018-06-03T07:06:07.161Z,77.20
2018-06-03T07:08:35.804Z,77.30
2018-06-03T07:11:04.448Z,77.80
2018-06-03T07:13:32.967Z,77.60
2018-06-03T07:16:01.494Z,77.80
2018-06-03T07:18:29.939Z,77.50
2018-06-03T07:20:58.401Z,76.00
2018-06-03T07:23:26.906Z,76.00
2018-06-03T07:25:55.368Z,75.40
2018-06-03T07:28:23.868Z,75.00
2018-06-03T07:30:52.473Z,75.50
2018-06-03T07:33:20.935Z,75.30
2018-06-03T07:35:49.413Z,74.90
2018-06-03T07:38:17.991Z,75.10
2018-06-03T07:40:47.010Z,74.80
2018-06-03T07:43:15.475Z,74.80
2018-06-03T07:45:44.017Z,73.20
2018-06-03T07:48:12.501Z,73.40
2018-06-03T07:50:41.469Z,74.60
2018-06-03T07:53:09.931Z,72.60
2018-06-03T07:58:06.631Z,72.70
2018-06-03T08:00:35.129Z,72.60
2018-06-03T08:03:03.700Z,72.60
2018-06-03T08:05:32.296Z,73.10
2018-06-03T08:08:00.810Z,73.20
2018-06-03T08:10:29.265Z,72.80
2018-06-03T08:12:57.750Z,73.10
2018-06-03T08:15:26.323Z,73.00
2018-06-03T08:17:55.161Z,71.80
2018-06-03T08:20:23.687Z,71.40
2018-06-03T08:22:52.281Z,71.60
2018-06-03T08:25:20.803Z,71.50
2018-06-03T08:27:49.278Z,70.80
2018-06-03T08:30:17.859Z,71.60
2018-06-03T08:32:46.360Z,71.30
2018-06-03T08:35:14.877Z,71.50
2018-06-03T08:37:43.367Z,71.00
2018-06-03T08:40:11.816Z,70.30
2018-06-03T08:42:40.400Z,68.60
2018-06-03T08:45:09.026Z,69.10
2018-06-03T08:47:37.569Z,69.00
2018-06-03T08:50:06.125Z,70.60
2018-06-03T08:52:34.740Z,71.20
2018-06-03T08:55:03.279Z,70.80
2018-06-03T08:57:31.736Z,70.80
2018-06-03T09:00:00.283Z,70.50
2018-06-03T09:02:28.787Z,70.40
2018-06-03T09:04:57.273Z,69.30
2018-06-03T09:07:25.857Z,69.20
2018-06-03T09:09:54.333Z,69.20
2018-06-03T09:12:22.828Z,69.70
2018-06-03T09:14:51.387Z,70.40
2018-06-03T09:17:20.004Z,69.20
2018-06-03T09:19:48.536Z,67.50
2018-06-03T09:22:17.060Z,68.70
2018-06-03T09:24:45.916Z,68.60
2018-06-03T09:27:14.504Z,69.50
2018-06-03T09:29:43.052Z,67.50
2018-06-03T09:32:11.962Z,68.00
2018-06-03T09:34:40.536Z,68.70
2018-06-03T09:37:08.987Z,66.50
2018-06-03T09:42:05.865Z,68.30
2018-06-03T09:44:34.403Z,67.90
2018-06-03T09:47:02.896Z,64.40
2018-06-03T09:49:31.503Z,64.20
2018-06-03T09:51:59.985Z,65.50
2018-06-03T09:56:56.904Z,66.40
2018-06-03T09:59:25.358Z,65.50
2018-06-03T10:01:53.824Z,64.90
2018-06-03T10:04:22.303Z,63.80
2018-06-03T10:06:50.890Z,65.60
2018-06-03T10:09:19.491Z,65.90
2018-06-03T10:14:16.407Z,63.90
2018-06-03T10:16:45.909Z,64.10
2018-06-03T10:19:14.469Z,65.30
2018-06-03T10:21:42.985Z,64.40
2018-06-03T10:24:11.534Z,62.60
2018-06-03T10:31:36.353Z,62.70
2018-06-03T10:34:05.008Z,63.70
2018-06-03T10:36:33.486Z,62.50
2018-06-03T10:39:02.086Z,62.00
2018-06-03T10:41:30.596Z,61.90
2018-06-03T10:43:59.093Z,61.40
2018-06-03T10:46:27.588Z,61.70
2018-06-03T10:48:56.123Z,62.60
2018-06-03T10:51:24.631Z,62.30
2018-06-03T10:53:53.124Z,61.50
2018-06-03T10:56:22.179Z,60.90
2018-06-03T10:58:50.657Z,60.80
2018-06-03T11:01:19.151Z,60.10
2018-06-03T11:06:16.544Z,61.80
2018-06-03T11:16:09.742Z,59.90
2018-06-03T11:21:06.391Z,58.90
2018-06-03T11:26:03.108Z,56.00
2018-06-03T11:28:31.596Z,54.00
2018-06-03T11:31:00.097Z,53.80
2018-06-03T11:33:28.672Z,54.70
2018-06-03T11:35:57.130Z,56.30
2018-06-03T11:38:25.618Z,56.60
2018-06-03T11:40:54.089Z,56.00
2018-06-03T11:43:22.598Z,54.30
2018-06-03T11:45:51.091Z,52.10
2018-06-03T11:48:19.672Z,53.80
2018-06-03T11:50:48.259Z,54.00
2018-06-03T11:53:16.752Z,53.80
2018-06-03T11:55:45.251Z,53.50
2018-06-03T11:58:55.201Z,53.80
2018-06-03T12:01:24.277Z,55.20
2018-06-03T12:03:52.741Z,54.00
2018-06-03T12:06:21.914Z,52.80
2018-06-03T12:08:50.483Z,52.90
2018-06-03T12:11:19.071Z,53.50
2018-06-03T12:13:47.577Z,53.30
2018-06-03T12:16:16.843Z,51.30
2018-06-03T12:18:45.411Z,49.90
2018-06-03T12:21:14.507Z,49.50
2018-06-03T12:26:11.175Z,50.10
2018-06-03T12:28:39.693Z,49.10
2018-06-03T12:31:08.196Z,48.50
2018-06-03T12:33:36.840Z,47.80
2018-06-03T12:38:33.578Z,50.10
2018-06-03T12:41:02.014Z,47.50
2018-06-03T12:43:30.481Z,49.10
2018-06-03T12:48:27.108Z,47.00
2018-06-03T12:50:55.584Z,48.70
2018-06-03T12:53:24.125Z,48.90
2018-06-03T12:55:52.619Z,47.60
2018-06-03T12:58:21.181Z,47.20
2018-06-03T13:03:17.828Z,47.40
2018-06-03T13:05:46.284Z,49.10
2018-06-03T13:08:14.795Z,48.20
2018-06-03T13:10:43.263Z,49.30
2018-06-03T13:13:11.747Z,49.50
2018-06-03T13:15:40.234Z,49.20
2018-06-03T13:18:08.719Z,47.80
2018-06-03T13:20:37.184Z,48.00
2018-06-03T13:23:05.646Z,47.40
2018-06-03T13:28:02.383Z,48.00
2018-06-03T13:30:30.887Z,49.30
2018-06-03T13:35:27.550Z,48.60
2018-06-03T13:40:24.213Z,48.20
2018-06-03T13:45:20.882Z,48.30
2018-06-03T13:47:49.332Z,48.00
2018-06-03T13:50:17.811Z,46.90
2018-06-03T13:52:46.298Z,47.60
2018-06-03T13:55:14.756Z,47.80
2018-06-03T13:57:43.241Z,48.50
2018-06-03T14:00:11.704Z,49.40
2018-06-03T14:02:40.251Z,47.60
2018-06-03T14:05:08.730Z,48.10
2018-06-03T14:07:37.182Z,47.70
2018-06-03T14:10:05.896Z,48.20
2018-06-03T14:12:34.499Z,47.30
2018-06-03T14:15:03.005Z,47.40
2018-06-03T14:19:59.701Z,46.90
2018-06-03T14:22:28.146Z,46.60
2018-06-03T14:24:56.630Z,46.70
2018-06-03T14:27:25.200Z,48.20
2018-06-03T14:29:53.736Z,47.30
2018-06-03T14:32:22.219Z,47.80
2018-06-03T14:34:50.708Z,48.30
2018-06-03T14:44:43.821Z,49.10
2018-06-03T14:49:40.575Z,49.30
2018-06-03T14:52:09.036Z,49.20
2018-06-03T14:54:37.526Z,49.40
2018-06-03T14:57:06.035Z,48.60
2018-06-03T15:02:03.067Z,49.90
2018-06-03T15:04:31.633Z,49.90
2018-06-03T15:07:00.149Z,51.00
2018-06-03T15:14:25.008Z,48.60
2018-06-03T15:16:53.470Z,50.20
2018-06-03T15:21:50.242Z,48.70
2018-06-03T15:24:18.705Z,49.60
2018-06-03T15:26:47.280Z,51.50
2018-06-03T15:29:15.976Z,51.70
2018-06-03T15:31:44.464Z,51.50
2018-06-03T15:34:13.003Z,52.00
2018-06-03T15:39:09.678Z,50.20
2018-06-03T15:44:06.420Z,50.80
2018-06-03T15:46:34.933Z,50.10
2018-06-03T15:51:31.720Z,50.90
2018-06-03T15:54:00.285Z,50.80
2018-06-03T15:56:28.768Z,51.20
2018-06-03T15:58:57.246Z,51.40
2018-06-03T16:01:25.783Z,52.10
2018-06-03T16:03:54.243Z,51.90
2018-06-03T16:06:23.327Z,51.30
2018-06-03T16:08:51.789Z,50.90
2018-06-03T16:11:20.254Z,50.70
2018-06-03T16:13:49.413Z,50.20
2018-06-03T16:16:17.955Z,49.70
2018-06-03T16:18:46.417Z,50.00
2018-06-03T16:28:39.464Z,50.40
2018-06-03T16:31:07.957Z,50.60
2018-06-03T16:33:36.422Z,50.80
2018-06-03T16:36:05.131Z,51.00
2018-06-03T16:38:33.707Z,50.80
2018-06-03T16:41:02.201Z,50.50
2018-06-03T16:43:30.750Z,50.40
2018-06-03T16:45:59.262Z,50.60
2018-06-03T16:48:27.773Z,51.40
2018-06-03T16:53:24.433Z,51.20
2018-06-03T16:55:53.042Z,51.60
2018-06-03T17:00:49.764Z,53.00
2018-06-03T17:03:18.236Z,53.50
2018-06-03T17:05:46.750Z,53.40
2018-06-03T17:08:15.366Z,52.10
2018-06-03T17:13:12.147Z,53.60
2018-06-03T17:15:40.582Z,53.10
2018-06-03T17:18:09.184Z,53.50
2018-06-03T17:20:37.725Z,53.30
2018-06-03T17:23:06.293Z,53.30
2018-06-03T17:28:03.673Z,52.90
2018-06-03T17:33:00.472Z,53.00
2018-06-03T17:35:29.158Z,52.90
2018-06-03T17:37:57.735Z,53.00
2018-06-03T17:40:27.023Z,53.10
2018-06-03T17:45:25.507Z,53.50
2018-06-03T17:52:50.911Z,54.50
2018-06-03T17:55:19.582Z,54.00
2018-06-03T17:57:48.198Z,54.30
2018-06-03T18:00:16.780Z,54.20
2018-06-03T18:02:45.302Z,54.20
2018-06-03T18:05:13.899Z,54.20
2018-06-03T18:07:42.607Z,54.60
2018-06-03T18:10:11.739Z,54.70
2018-06-03T18:12:40.753Z,54.90
2018-06-03T18:15:10.352Z,55.20
2018-06-03T18:17:39.182Z,55.50
2018-06-03T18:22:36.465Z,55.60
2018-06-03T18:25:05.249Z,55.90
2018-06-03T18:27:35.094Z,56.20
2018-06-03T18:30:04.962Z,56.50
2018-06-03T18:32:34.333Z,56.60
2018-06-03T18:35:03.180Z,56.80
2018-06-03T18:37:31.941Z,57.00
2018-06-03T18:40:01.444Z,57.10
2018-06-03T18:42:30.316Z,57.40
2018-06-03T18:44:59.700Z,57.50
2018-06-03T18:49:57.826Z,57.40
2018-06-03T18:52:26.922Z,58.10
2018-06-03T18:54:55.900Z,58.50
2018-06-03T18:57:25.374Z,58.90
2018-06-03T18:59:54.364Z,59.00
2018-06-03T19:02:23.750Z,59.40
2018-06-03T19:04:53.794Z,59.70
2018-06-03T19:07:24.787Z,59.70
2018-06-03T19:09:53.703Z,59.90
2018-06-03T19:12:23.500Z,60.10
2018-06-03T19:17:22.404Z,60.90
2018-06-03T19:22:21.042Z,61.30
2018-06-03T19:24:52.055Z,61.60
2018-06-03T19:29:49.953Z,61.90
2018-06-03T19:32:19.031Z,61.90
2018-06-03T19:34:48.780Z,61.70
2018-06-03T19:37:17.701Z,61.70
2018-06-03T19:39:46.926Z,61.70
2018-06-03T19:42:15.996Z,62.10
2018-06-03T19:44:45.235Z,62.40
2018-06-03T19:47:16.343Z,62.70
2018-06-03T19:49:45.454Z,63.10
2018-06-03T19:52:14.269Z,63.30
2018-06-03T19:54:43.212Z,63.80
2018-06-03T19:57:12.503Z,64.10
2018-06-03T20:02:09.987Z,65.00
2018-06-03T20:09:37.064Z,66.90
2018-06-03T20:12:05.842Z,67.20
2018-06-03T20:14:34.804Z,68.10
2018-06-03T20:17:03.846Z,68.10
2018-06-03T20:19:32.890Z,68.30
2018-06-03T20:22:01.827Z,68.80
2018-06-03T20:24:30.653Z,69.30
2018-06-03T20:26:59.416Z,69.90
2018-06-03T20:29:28.875Z,70.40
2018-06-03T20:31:57.942Z,70.50
2018-06-03T20:36:55.265Z,70.90
2018-06-03T20:39:24.131Z,71.10
2018-06-03T20:41:52.978Z,71.40
2018-06-03T20:44:21.795Z,71.70
2018-06-03T20:46:50.333Z,71.90
2018-06-03T20:49:18.872Z,72.00
2018-06-03T20:54:16.026Z,72.60
2018-06-03T20:56:44.514Z,72.70
2018-06-03T20:59:13.047Z,73.20
2018-06-03T21:04:09.857Z,73.80
2018-06-03T21:06:38.393Z,73.90
2018-06-03T21:11:36.204Z,74.30
2018-06-03T21:14:04.751Z,74.50
2018-06-03T21:19:01.573Z,75.20
2018-06-03T21:21:30.040Z,75.00
2018-06-03T21:23:58.532Z,75.10
2018-06-03T21:26:26.999Z,75.20
2018-06-03T21:31:23.650Z,75.30
2018-06-03T21:33:52.151Z,75.20
2018-06-03T21:36:20.647Z,75.20
2018-06-03T21:38:49.126Z,75.20
2018-06-03T21:41:17.676Z,75.20
2018-06-03T21:43:46.141Z,75.30
2018-06-03T21:46:14.579Z,75.50
2018-06-03T21:48:43.113Z,75.50
2018-06-03T21:51:11.654Z,75.60
2018-06-03T22:03:33.023Z,76.10
2018-06-03T22:06:01.579Z,76.40
2018-06-03T22:08:30.126Z,76.50
2018-06-03T22:15:54.907Z,77.20
2018-06-03T22:18:23.383Z,77.90
2018-06-03T22:20:51.842Z,77.40
2018-06-03T22:28:16.671Z,78.10
2018-06-03T22:33:13.272Z,78.70
2018-06-03T22:35:41.835Z,78.80
2018-06-03T22:40:38.450Z,79.20
2018-06-03T22:43:06.975Z,79.40
2018-06-03T22:48:03.643Z,79.60
2018-06-03T22:53:00.309Z,79.80
2018-06-03T22:57:57.089Z,80.30
2018-06-03T23:00:28.194Z,80.40
2018-06-03T23:03:02.063Z,80.60
2018-06-03T23:05:30.648Z,81.10
2018-06-03T23:07:59.192Z,81.00
2018-06-03T23:12:56.005Z,81.10
2018-06-03T23:15:24.751Z,81.60
2018-06-03T23:20:21.389Z,82.40
2018-06-03T23:22:49.940Z,81.90
2018-06-03T23:25:18.385Z,82.10
2018-06-03T23:30:14.986Z,82.70
2018-06-03T23:32:43.403Z,82.80
2018-06-03T23:35:11.962Z,83.00
2018-06-03T23:37:40.401Z,83.00
2018-06-03T23:42:37.014Z,83.10
2018-06-03T23:45:05.510Z,83.30
2018-06-03T23:47:34.000Z,83.30
2018-06-03T23:50:02.482Z,83.60
2018-06-03T23:52:30.930Z,83.90
2018-06-03T23:55:00.051Z,84.00
2018-06-03T23:57:28.539Z,84.20
2018-06-03T23:59:56.992Z,84.20
